sensor_id;sensor_type;location;lat;lon;timestamp;P1;durP1;ratioP1;P2;durP2;ratioP2
10651;SDS011;5374;42.742;23.266;2023-06-19T11:24:26;6.10;;;4.60;;
10651;SDS011;5374;42.742;23.266;2023-06-19T11:27:18;4.73;;;4.23;;
10651;SDS011;5374;42.742;23.266;2023-06-19T11:30:12;9.03;;;4.60;;
10651;SDS011;5374;42.742;23.266;2023-06-19T11:32:59;6.87;;;4.70;;
10651;SDS011;5374;42.742;23.266;2023-06-19T11:35:47;8.67;;;4.70;;
10651;SDS011;5374;42.742;23.266;2023-06-19T11:38:35;5.37;;;4.40;;
10651;SDS011;5374;42.742;23.266;2023-06-19T11:41:28;4.77;;;4.20;;
10651;SDS011;5374;42.742;23.266;2023-06-19T11:44:15;5.83;;;4.10;;
10651;SDS011;5374;42.742;23.266;2023-06-19T11:47:02;5.37;;;4.60;;
10651;SDS011;5374;42.742;23.266;2023-06-19T11:49:50;6.00;;;4.83;;
10651;SDS011;5374;42.742;23.266;2023-06-19T11:52:38;8.07;;;4.70;;
10651;SDS011;5374;42.742;23.266;2023-06-19T11:55:25;5.47;;;4.27;;
10651;SDS011;5374;42.742;23.266;2023-06-19T11:58:14;4.60;;;4.20;;
10651;SDS011;5374;42.742;23.266;2023-06-19T12:01:01;7.97;;;4.07;;
10651;SDS011;5374;42.742;23.266;2023-06-19T12:03:48;6.07;;;4.23;;
10651;SDS011;5374;42.742;23.266;2023-06-19T12:06:35;5.07;;;4.60;;
10651;SDS011;5374;42.742;23.266;2023-06-19T12:09:23;11.40;;;4.30;;
10651;SDS011;5374;42.742;23.266;2023-06-19T12:12:11;7.47;;;4.30;;
10651;SDS011;5374;42.742;23.266;2023-06-19T12:14:59;6.60;;;4.00;;
10651;SDS011;5374;42.742;23.266;2023-06-19T12:17:46;5.83;;;4.40;;
10651;SDS011;5374;42.742;23.266;2023-06-19T12:20:33;8.87;;;4.70;;
10651;SDS011;5374;42.742;23.266;2023-06-19T12:23:21;6.20;;;4.30;;
10651;SDS011;5374;42.742;23.266;2023-06-19T12:26:08;6.00;;;4.50;;
10651;SDS011;5374;42.742;23.266;2023-06-19T12:28:55;18.60;;;4.93;;
10651;SDS011;5374;42.742;23.266;2023-06-19T12:31:44;6.60;;;4.63;;
10651;SDS011;5374;42.742;23.266;2023-06-19T12:34:31;6.17;;;4.30;;
10651;SDS011;5374;42.742;23.266;2023-06-19T12:37:18;5.33;;;4.30;;
10651;SDS011;5374;42.742;23.266;2023-06-19T12:40:06;6.67;;;4.60;;
10651;SDS011;5374;42.742;23.266;2023-06-19T12:42:56;12.47;;;5.40;;
10651;SDS011;5374;42.742;23.266;2023-06-19T12:45:43;10.23;;;5.13;;
10651;SDS011;5374;42.742;23.266;2023-06-19T12:48:33;7.90;;;4.67;;
10651;SDS011;5374;42.742;23.266;2023-06-19T12:51:20;5.53;;;4.87;;
10651;SDS011;5374;42.742;23.266;2023-06-19T12:54:07;5.47;;;4.43;;
10651;SDS011;5374;42.742;23.266;2023-06-19T12:56:54;10.37;;;4.10;;
10651;SDS011;5374;42.742;23.266;2023-06-19T12:59:42;7.77;;;4.17;;
10651;SDS011;5374;42.742;23.266;2023-06-19T13:02:29;17.00;;;5.13;;
10651;SDS011;5374;42.742;23.266;2023-06-19T13:05:18;6.83;;;4.00;;
10651;SDS011;5374;42.742;23.266;2023-06-19T13:08:05;18.17;;;4.60;;
10651;SDS011;5374;42.742;23.266;2023-06-19T13:10:52;8.47;;;3.90;;
10651;SDS011;5374;42.742;23.266;2023-06-19T13:13:39;8.10;;;4.03;;
10651;SDS011;5374;42.742;23.266;2023-06-19T13:16:26;9.17;;;4.13;;
10651;SDS011;5374;42.742;23.266;2023-06-19T13:19:13;10.70;;;4.37;;
10651;SDS011;5374;42.742;23.266;2023-06-19T13:22:02;4.50;;;3.73;;
10651;SDS011;5374;42.742;23.266;2023-06-19T13:24:49;7.30;;;3.90;;
10651;SDS011;5374;42.742;23.266;2023-06-19T13:27:36;5.73;;;4.57;;
10651;SDS011;5374;42.742;23.266;2023-06-19T13:30:24;5.97;;;4.27;;
10651;SDS011;5374;42.742;23.266;2023-06-19T13:33:11;6.87;;;3.93;;
10651;SDS011;5374;42.742;23.266;2023-06-19T13:35:58;9.53;;;3.83;;
10651;SDS011;5374;42.742;23.266;2023-06-19T13:38:46;9.13;;;4.30;;
10651;SDS011;5374;42.742;23.266;2023-06-19T13:41:34;4.07;;;3.67;;
10651;SDS011;5374;42.742;23.266;2023-06-19T13:44:21;7.73;;;3.80;;
10651;SDS011;5374;42.742;23.266;2023-06-19T13:47:08;5.83;;;3.90;;
10651;SDS011;5374;42.742;23.266;2023-06-19T13:49:55;4.53;;;3.70;;
10651;SDS011;5374;42.742;23.266;2023-06-19T13:52:42;7.67;;;3.93;;
10651;SDS011;5374;42.742;23.266;2023-06-19T13:55:31;5.20;;;4.00;;
10651;SDS011;5374;42.742;23.266;2023-06-19T13:58:18;5.30;;;3.93;;
10651;SDS011;5374;42.742;23.266;2023-06-19T14:01:06;7.67;;;4.00;;
10651;SDS011;5374;42.742;23.266;2023-06-19T14:03:53;8.50;;;4.40;;
10651;SDS011;5374;42.742;23.266;2023-06-19T14:06:40;5.40;;;4.23;;
10651;SDS011;5374;42.742;23.266;2023-06-19T14:09:29;6.50;;;4.17;;
10651;SDS011;5374;42.742;23.266;2023-06-19T14:12:17;4.20;;;3.80;;
10651;SDS011;5374;42.742;23.266;2023-06-19T14:15:05;8.63;;;4.10;;
10651;SDS011;5374;42.742;23.266;2023-06-19T14:17:54;10.70;;;4.40;;
10651;SDS011;5374;42.742;23.266;2023-06-19T14:20:41;6.07;;;3.80;;
10651;SDS011;5374;42.742;23.266;2023-06-19T14:23:28;4.37;;;3.63;;
10651;SDS011;5374;42.742;23.266;2023-06-19T14:26:15;7.23;;;4.27;;
10651;SDS011;5374;42.742;23.266;2023-06-19T14:29:03;5.23;;;4.10;;
10651;SDS011;5374;42.742;23.266;2023-06-19T14:31:50;7.10;;;4.00;;
10651;SDS011;5374;42.742;23.266;2023-06-19T14:34:38;8.10;;;4.40;;
10651;SDS011;5374;42.742;23.266;2023-06-19T14:37:25;7.87;;;4.30;;
10651;SDS011;5374;42.742;23.266;2023-06-19T14:40:12;6.87;;;4.30;;
10651;SDS011;5374;42.742;23.266;2023-06-19T14:42:59;8.30;;;4.47;;
10651;SDS011;5374;42.742;23.266;2023-06-19T14:45:48;22.90;;;4.83;;
10651;SDS011;5374;42.742;23.266;2023-06-19T14:48:35;5.13;;;4.13;;
10651;SDS011;5374;42.742;23.266;2023-06-19T14:51:22;5.93;;;4.30;;
10651;SDS011;5374;42.742;23.266;2023-06-19T14:54:09;5.63;;;4.40;;
10651;SDS011;5374;42.742;23.266;2023-06-19T14:56:56;6.43;;;4.50;;
10651;SDS011;5374;42.742;23.266;2023-06-19T14:59:44;15.80;;;4.90;;
10651;SDS011;5374;42.742;23.266;2023-06-19T15:02:32;7.37;;;4.53;;
10651;SDS011;5374;42.742;23.266;2023-06-19T15:05:21;5.00;;;4.50;;
10651;SDS011;5374;42.742;23.266;2023-06-19T15:08:08;6.77;;;5.10;;
10651;SDS011;5374;42.742;23.266;2023-06-19T15:10:56;5.30;;;4.40;;
10651;SDS011;5374;42.742;23.266;2023-06-19T15:13:43;12.13;;;4.50;;
10651;SDS011;5374;42.742;23.266;2023-06-19T15:16:30;5.43;;;4.90;;
10651;SDS011;5374;42.742;23.266;2023-06-19T15:19:19;8.20;;;5.00;;
10651;SDS011;5374;42.742;23.266;2023-06-19T15:22:06;5.40;;;4.90;;
10651;SDS011;5374;42.742;23.266;2023-06-19T15:24:53;5.37;;;4.80;;
10651;SDS011;5374;42.742;23.266;2023-06-19T15:27:40;6.83;;;4.90;;
10651;SDS011;5374;42.742;23.266;2023-06-19T15:30:27;6.90;;;5.00;;
10651;SDS011;5374;42.742;23.266;2023-06-19T15:33:14;5.57;;;4.97;;
10651;SDS011;5374;42.742;23.266;2023-06-19T15:36:03;8.77;;;4.97;;
10651;SDS011;5374;42.742;23.266;2023-06-19T15:38:50;6.43;;;5.63;;
10651;SDS011;5374;42.742;23.266;2023-06-19T15:41:37;7.87;;;5.50;;
10651;SDS011;5374;42.742;23.266;2023-06-19T15:44:24;7.17;;;5.03;;
10651;SDS011;5374;42.742;23.266;2023-06-19T15:47:12;6.70;;;5.40;;
10651;SDS011;5374;42.742;23.266;2023-06-19T15:49:59;6.43;;;5.17;;
10651;SDS011;5374;42.742;23.266;2023-06-19T15:52:48;5.73;;;4.50;;
10651;SDS011;5374;42.742;23.266;2023-06-19T15:55:35;8.83;;;5.80;;
10651;SDS011;5374;42.742;23.266;2023-06-19T15:58:22;6.40;;;5.40;;
10651;SDS011;5374;42.742;23.266;2023-06-19T16:01:09;7.13;;;5.90;;
10651;SDS011;5374;42.742;23.266;2023-06-19T16:03:56;8.80;;;4.70;;
10651;SDS011;5374;42.742;23.266;2023-06-19T16:06:44;8.23;;;4.90;;
10651;SDS011;5374;42.742;23.266;2023-06-19T16:09:32;9.03;;;5.43;;
10651;SDS011;5374;42.742;23.266;2023-06-19T16:12:19;7.93;;;5.30;;
10651;SDS011;5374;42.742;23.266;2023-06-19T16:15:07;6.03;;;4.60;;
10651;SDS011;5374;42.742;23.266;2023-06-19T16:17:58;6.87;;;4.63;;
10651;SDS011;5374;42.742;23.266;2023-06-19T16:20:45;6.77;;;4.80;;
10651;SDS011;5374;42.742;23.266;2023-06-19T16:23:32;6.60;;;5.07;;
10651;SDS011;5374;42.742;23.266;2023-06-19T16:26:22;5.93;;;4.80;;
10651;SDS011;5374;42.742;23.266;2023-06-19T16:29:09;9.00;;;5.00;;
10651;SDS011;5374;42.742;23.266;2023-06-19T16:31:57;5.10;;;4.60;;
10651;SDS011;5374;42.742;23.266;2023-06-19T16:34:45;8.93;;;5.67;;
10651;SDS011;5374;42.742;23.266;2023-06-19T16:37:33;7.27;;;5.10;;
10651;SDS011;5374;42.742;23.266;2023-06-19T16:40:20;5.30;;;4.50;;
10651;SDS011;5374;42.742;23.266;2023-06-19T16:43:10;7.77;;;4.50;;
10651;SDS011;5374;42.742;23.266;2023-06-19T16:45:57;7.03;;;4.80;;
10651;SDS011;5374;42.742;23.266;2023-06-19T16:48:45;8.27;;;4.87;;
10651;SDS011;5374;42.742;23.266;2023-06-19T16:51:32;6.40;;;5.17;;
10651;SDS011;5374;42.742;23.266;2023-06-19T16:54:19;7.77;;;4.47;;
10651;SDS011;5374;42.742;23.266;2023-06-19T16:57:07;8.63;;;4.83;;
10651;SDS011;5374;42.742;23.266;2023-06-19T16:59:55;9.10;;;4.73;;
10651;SDS011;5374;42.742;23.266;2023-06-19T17:02:44;5.60;;;5.10;;
10651;SDS011;5374;42.742;23.266;2023-06-19T17:05:32;7.67;;;5.13;;
10651;SDS011;5374;42.742;23.266;2023-06-19T17:08:19;9.47;;;5.07;;
10651;SDS011;5374;42.742;23.266;2023-06-19T17:11:07;6.13;;;4.50;;
10651;SDS011;5374;42.742;23.266;2023-06-19T17:13:54;6.53;;;4.63;;
10651;SDS011;5374;42.742;23.266;2023-06-19T17:16:42;5.93;;;4.87;;
10651;SDS011;5374;42.742;23.266;2023-06-19T17:19:30;6.50;;;5.10;;
10651;SDS011;5374;42.742;23.266;2023-06-19T17:22:17;11.10;;;5.13;;
10651;SDS011;5374;42.742;23.266;2023-06-19T17:25:04;6.20;;;4.73;;
10651;SDS011;5374;42.742;23.266;2023-06-19T17:27:52;5.97;;;5.00;;
10651;SDS011;5374;42.742;23.266;2023-06-19T17:30:39;6.57;;;5.70;;
10651;SDS011;5374;42.742;23.266;2023-06-19T17:33:28;7.23;;;4.97;;
10651;SDS011;5374;42.742;23.266;2023-06-19T17:36:15;6.73;;;5.40;;
10651;SDS011;5374;42.742;23.266;2023-06-19T17:39:02;6.13;;;5.30;;
10651;SDS011;5374;42.742;23.266;2023-06-19T17:41:49;6.67;;;5.67;;
10651;SDS011;5374;42.742;23.266;2023-06-19T17:44:37;6.10;;;5.50;;
10651;SDS011;5374;42.742;23.266;2023-06-19T17:47:24;7.00;;;5.40;;
10651;SDS011;5374;42.742;23.266;2023-06-19T17:50:12;7.43;;;5.87;;
10651;SDS011;5374;42.742;23.266;2023-06-19T17:53:00;7.27;;;6.10;;
10651;SDS011;5374;42.742;23.266;2023-06-19T17:55:47;11.93;;;6.47;;
10651;SDS011;5374;42.742;23.266;2023-06-19T17:58:34;9.63;;;6.67;;
10651;SDS011;5374;42.742;23.266;2023-06-19T18:01:22;8.90;;;7.07;;
10651;SDS011;5374;42.742;23.266;2023-06-19T18:04:10;9.30;;;6.63;;
10651;SDS011;5374;42.742;23.266;2023-06-19T18:06:59;6.20;;;5.60;;
10651;SDS011;5374;42.742;23.266;2023-06-19T18:09:46;8.17;;;6.37;;
10651;SDS011;5374;42.742;23.266;2023-06-19T18:12:34;7.17;;;5.83;;
10651;SDS011;5374;42.742;23.266;2023-06-19T18:15:21;6.53;;;5.87;;
10651;SDS011;5374;42.742;23.266;2023-06-19T18:18:08;7.33;;;5.87;;
10651;SDS011;5374;42.742;23.266;2023-06-19T18:20:56;8.30;;;5.90;;
10651;SDS011;5374;42.742;23.266;2023-06-19T18:23:44;6.50;;;5.90;;
10651;SDS011;5374;42.742;23.266;2023-06-19T18:26:31;7.57;;;5.50;;
10651;SDS011;5374;42.742;23.266;2023-06-19T18:29:19;11.77;;;5.80;;
10651;SDS011;5374;42.742;23.266;2023-06-19T18:32:06;6.80;;;5.33;;
10651;SDS011;5374;42.742;23.266;2023-06-19T18:34:53;7.90;;;6.13;;
10651;SDS011;5374;42.742;23.266;2023-06-19T18:37:40;10.23;;;5.73;;
10651;SDS011;5374;42.742;23.266;2023-06-19T18:40:29;9.13;;;6.83;;
10651;SDS011;5374;42.742;23.266;2023-06-19T18:43:17;9.23;;;6.60;;
10651;SDS011;5374;42.742;23.266;2023-06-19T18:46:04;14.20;;;7.87;;
10651;SDS011;5374;42.742;23.266;2023-06-19T18:48:51;9.87;;;7.77;;
10651;SDS011;5374;42.742;23.266;2023-06-19T18:51:38;11.83;;;7.47;;
10651;SDS011;5374;42.742;23.266;2023-06-19T18:54:25;13.40;;;6.93;;
10651;SDS011;5374;42.742;23.266;2023-06-19T18:57:14;11.27;;;7.03;;
10651;SDS011;5374;42.742;23.266;2023-06-19T19:00:01;10.10;;;6.37;;
10651;SDS011;5374;42.742;23.266;2023-06-19T19:02:49;9.87;;;6.43;;
10651;SDS011;5374;42.742;23.266;2023-06-19T19:05:37;7.60;;;6.67;;
10651;SDS011;5374;42.742;23.266;2023-06-19T19:08:24;8.50;;;6.93;;
10651;SDS011;5374;42.742;23.266;2023-06-19T19:11:12;8.60;;;7.17;;
10651;SDS011;5374;42.742;23.266;2023-06-19T19:14:00;8.37;;;7.50;;
10651;SDS011;5374;42.742;23.266;2023-06-19T19:16:47;7.70;;;6.90;;
10651;SDS011;5374;42.742;23.266;2023-06-19T19:19:35;7.50;;;6.43;;
10651;SDS011;5374;42.742;23.266;2023-06-19T19:22:22;8.30;;;6.77;;
10651;SDS011;5374;42.742;23.266;2023-06-19T19:25:09;10.07;;;7.00;;
10651;SDS011;5374;42.742;23.266;2023-06-19T19:27:56;8.33;;;6.73;;
10651;SDS011;5374;42.742;23.266;2023-06-19T19:30:45;10.73;;;7.00;;
10651;SDS011;5374;42.742;23.266;2023-06-19T19:33:32;7.97;;;6.67;;
10651;SDS011;5374;42.742;23.266;2023-06-19T19:36:20;7.30;;;6.50;;
10651;SDS011;5374;42.742;23.266;2023-06-19T19:39:07;12.30;;;7.47;;
10651;SDS011;5374;42.742;23.266;2023-06-19T19:41:54;7.93;;;7.20;;
10651;SDS011;5374;42.742;23.266;2023-06-19T19:44:41;8.00;;;6.90;;
10651;SDS011;5374;42.742;23.266;2023-06-19T19:47:30;9.77;;;7.37;;
10651;SDS011;5374;42.742;23.266;2023-06-19T19:50:18;11.23;;;7.47;;
10651;SDS011;5374;42.742;23.266;2023-06-19T19:53:06;9.37;;;7.13;;
10651;SDS011;5374;42.742;23.266;2023-06-19T19:55:54;7.77;;;6.80;;
10651;SDS011;5374;42.742;23.266;2023-06-19T19:58:41;9.37;;;6.80;;
10651;SDS011;5374;42.742;23.266;2023-06-19T20:01:30;7.40;;;6.70;;
10651;SDS011;5374;42.742;23.266;2023-06-19T20:04:18;7.47;;;6.77;;
10651;SDS011;5374;42.742;23.266;2023-06-19T20:07:06;7.80;;;6.57;;
10651;SDS011;5374;42.742;23.266;2023-06-19T20:09:53;7.50;;;6.80;;
10651;SDS011;5374;42.742;23.266;2023-06-19T20:12:40;7.73;;;6.53;;
10651;SDS011;5374;42.742;23.266;2023-06-19T20:15:27;7.97;;;6.93;;
10651;SDS011;5374;42.742;23.266;2023-06-19T20:18:14;8.20;;;6.90;;
10651;SDS011;5374;42.742;23.266;2023-06-19T20:21:03;7.53;;;6.77;;
10651;SDS011;5374;42.742;23.266;2023-06-19T20:23:50;6.60;;;6.00;;
10651;SDS011;5374;42.742;23.266;2023-06-19T20:26:38;8.00;;;6.77;;
10651;SDS011;5374;42.742;23.266;2023-06-19T20:29:25;8.70;;;7.00;;
10651;SDS011;5374;42.742;23.266;2023-06-19T20:32:12;7.67;;;6.80;;
10651;SDS011;5374;42.742;23.266;2023-06-19T20:34:59;7.77;;;6.97;;
10651;SDS011;5374;42.742;23.266;2023-06-19T20:37:48;9.33;;;7.27;;
10651;SDS011;5374;42.742;23.266;2023-06-19T20:40:36;11.60;;;7.33;;
10651;SDS011;5374;42.742;23.266;2023-06-19T20:43:23;8.90;;;6.97;;
10651;SDS011;5374;42.742;23.266;2023-06-19T20:46:12;7.40;;;6.70;;
10651;SDS011;5374;42.742;23.266;2023-06-19T20:48:59;10.17;;;7.27;;
10651;SDS011;5374;42.742;23.266;2023-06-19T20:51:46;8.73;;;7.13;;
10651;SDS011;5374;42.742;23.266;2023-06-19T20:54:36;7.30;;;6.23;;
10651;SDS011;5374;42.742;23.266;2023-06-19T20:57:23;7.30;;;6.53;;
10651;SDS011;5374;42.742;23.266;2023-06-19T21:00:10;7.00;;;5.90;;
10651;SDS011;5374;42.742;23.266;2023-06-19T21:02:58;7.37;;;6.70;;
10651;SDS011;5374;42.742;23.266;2023-06-19T21:05:45;7.67;;;6.90;;
10651;SDS011;5374;42.742;23.266;2023-06-19T21:08:33;8.27;;;6.97;;
10651;SDS011;5374;42.742;23.266;2023-06-19T21:11:21;7.53;;;6.70;;
10651;SDS011;5374;42.742;23.266;2023-06-19T21:14:08;8.00;;;6.90;;
10651;SDS011;5374;42.742;23.266;2023-06-19T21:16:55;7.70;;;6.97;;
10651;SDS011;5374;42.742;23.266;2023-06-19T21:19:43;9.03;;;7.00;;
10651;SDS011;5374;42.742;23.266;2023-06-19T21:22:31;10.60;;;7.00;;
10651;SDS011;5374;42.742;23.266;2023-06-19T21:25:18;8.63;;;7.30;;
10651;SDS011;5374;42.742;23.266;2023-06-19T21:28:06;7.13;;;6.50;;
10651;SDS011;5374;42.742;23.266;2023-06-19T21:30:54;7.93;;;7.00;;
10651;SDS011;5374;42.742;23.266;2023-06-19T21:33:41;8.73;;;7.83;;
10651;SDS011;5374;42.742;23.266;2023-06-19T21:36:28;11.77;;;7.30;;
10651;SDS011;5374;42.742;23.266;2023-06-19T21:39:15;10.60;;;7.53;;
10651;SDS011;5374;42.742;23.266;2023-06-19T21:42:02;12.20;;;7.17;;
10651;SDS011;5374;42.742;23.266;2023-06-19T21:44:51;12.70;;;7.50;;
10651;SDS011;5374;42.742;23.266;2023-06-19T21:47:38;11.87;;;7.83;;
10651;SDS011;5374;42.742;23.266;2023-06-19T21:50:25;8.70;;;7.17;;
10651;SDS011;5374;42.742;23.266;2023-06-19T21:53:12;7.47;;;6.77;;
10651;SDS011;5374;42.742;23.266;2023-06-19T21:55:59;8.40;;;7.60;;
10651;SDS011;5374;42.742;23.266;2023-06-19T21:58:47;8.77;;;7.40;;
10651;SDS011;5374;42.742;23.266;2023-06-19T22:01:36;10.07;;;7.30;;
10651;SDS011;5374;42.742;23.266;2023-06-19T22:04:24;10.93;;;7.90;;
10651;SDS011;5374;42.742;23.266;2023-06-19T22:07:12;10.20;;;7.67;;
10651;SDS011;5374;42.742;23.266;2023-06-19T22:10:02;8.40;;;7.53;;
10651;SDS011;5374;42.742;23.266;2023-06-19T22:12:54;8.00;;;7.20;;
10651;SDS011;5374;42.742;23.266;2023-06-19T22:15:41;9.80;;;7.03;;
10651;SDS011;5374;42.742;23.266;2023-06-19T22:18:32;10.47;;;7.43;;
10651;SDS011;5374;42.742;23.266;2023-06-19T22:21:19;12.03;;;7.70;;
10651;SDS011;5374;42.742;23.266;2023-06-19T22:24:06;8.77;;;7.23;;
10651;SDS011;5374;42.742;23.266;2023-06-19T22:26:54;9.97;;;7.60;;
10651;SDS011;5374;42.742;23.266;2023-06-19T22:29:41;8.60;;;7.63;;
10651;SDS011;5374;42.742;23.266;2023-06-19T22:32:41;8.23;;;7.43;;
10651;SDS011;5374;42.742;23.266;2023-06-19T22:35:29;9.10;;;8.20;;
10651;SDS011;5374;42.742;23.266;2023-06-19T22:38:16;9.17;;;7.53;;
10651;SDS011;5374;42.742;23.266;2023-06-19T22:41:04;10.53;;;7.47;;
10651;SDS011;5374;42.742;23.266;2023-06-19T22:43:52;9.10;;;8.20;;
10651;SDS011;5374;42.742;23.266;2023-06-19T22:46:40;10.17;;;7.87;;
10651;SDS011;5374;42.742;23.266;2023-06-19T22:49:27;8.60;;;7.73;;
10651;SDS011;5374;42.742;23.266;2023-06-19T22:52:19;10.70;;;7.40;;
10651;SDS011;5374;42.742;23.266;2023-06-19T22:55:08;8.57;;;7.67;;
10651;SDS011;5374;42.742;23.266;2023-06-19T22:57:56;8.50;;;7.70;;
10651;SDS011;5374;42.742;23.266;2023-06-19T23:00:43;8.10;;;7.30;;
10651;SDS011;5374;42.742;23.266;2023-06-19T23:03:30;12.07;;;7.73;;
10651;SDS011;5374;42.742;23.266;2023-06-19T23:06:17;7.67;;;7.00;;
10651;SDS011;5374;42.742;23.266;2023-06-19T23:09:06;8.77;;;7.87;;
10651;SDS011;5374;42.742;23.266;2023-06-19T23:11:53;8.90;;;7.13;;
10651;SDS011;5374;42.742;23.266;2023-06-19T23:14:41;8.27;;;7.47;;
10651;SDS011;5374;42.742;23.266;2023-06-19T23:17:28;8.93;;;7.73;;
10651;SDS011;5374;42.742;23.266;2023-06-19T23:20:15;9.07;;;7.73;;
10651;SDS011;5374;42.742;23.266;2023-06-19T23:23:03;10.50;;;7.67;;
10651;SDS011;5374;42.742;23.266;2023-06-19T23:25:52;8.53;;;7.77;;
10651;SDS011;5374;42.742;23.266;2023-06-19T23:28:39;8.60;;;7.70;;
10651;SDS011;5374;42.742;23.266;2023-06-19T23:31:26;8.73;;;7.93;;
10651;SDS011;5374;42.742;23.266;2023-06-19T23:34:13;11.00;;;7.87;;
10651;SDS011;5374;42.742;23.266;2023-06-19T23:37:01;8.87;;;8.03;;
10651;SDS011;5374;42.742;23.266;2023-06-19T23:39:50;9.13;;;7.93;;
10651;SDS011;5374;42.742;23.266;2023-06-19T23:42:38;8.70;;;7.90;;
10651;SDS011;5374;42.742;23.266;2023-06-19T23:45:25;9.60;;;7.80;;
10651;SDS011;5374;42.742;23.266;2023-06-19T23:48:13;9.73;;;8.30;;
10651;SDS011;5374;42.742;23.266;2023-06-19T23:51:00;9.40;;;8.40;;
10651;SDS011;5374;42.742;23.266;2023-06-19T23:53:49;9.80;;;7.90;;
10651;SDS011;5374;42.742;23.266;2023-06-19T23:56:36;11.33;;;8.67;;
10651;SDS011;5374;42.742;23.266;2023-06-19T23:59:27;10.20;;;8.83;;
